createdAt,value
2022-10-02T00:02:48.752Z,23.60
2022-10-02T00:05:38.390Z,23.60
2022-10-02T00:08:23.318Z,23.60
2022-10-02T00:11:16.746Z,23.60
2022-10-02T00:13:49.136Z,23.50
2022-10-02T00:16:27.582Z,23.50
2022-10-02T00:19:00.199Z,23.50
2022-10-02T00:22:00.853Z,23.50
2022-10-02T00:24:48.475Z,23.50
2022-10-02T00:28:05.899Z,23.50
2022-10-02T00:31:07.188Z,23.40
2022-10-02T00:34:21.968Z,23.40
2022-10-02T00:37:02.067Z,23.40
2022-10-02T00:39:34.574Z,23.40
2022-10-02T00:42:28.714Z,23.40
2022-10-02T00:45:30.451Z,23.40
2022-10-02T00:48:24.560Z,23.40
2022-10-02T00:51:23.496Z,23.40
2022-10-02T00:54:22.389Z,23.40
2022-10-02T00:57:19.216Z,23.40
2022-10-02T01:00:11.439Z,23.40
2022-10-02T01:03:21.287Z,23.40
2022-10-02T01:05:53.843Z,23.30
2022-10-02T01:08:27.031Z,23.30
2022-10-02T01:11:00.172Z,23.30
2022-10-02T01:13:33.260Z,23.30
2022-10-02T01:16:09.863Z,23.30
2022-10-02T01:18:46.189Z,23.30
2022-10-02T01:21:36.532Z,23.30
2022-10-02T01:24:29.639Z,23.30
2022-10-02T01:27:02.220Z,23.30
2022-10-02T01:29:35.049Z,23.30
2022-10-02T01:32:07.703Z,23.30
2022-10-02T01:34:40.364Z,23.20
2022-10-02T01:37:13.292Z,23.20
2022-10-02T01:39:45.681Z,23.20
2022-10-02T01:42:18.417Z,23.20
2022-10-02T01:44:50.947Z,23.20
2022-10-02T01:47:42.072Z,23.20
2022-10-02T01:50:53.246Z,23.20
2022-10-02T01:54:00.339Z,23.20
2022-10-02T01:57:00.153Z,23.10
2022-10-02T01:59:45.963Z,23.10
2022-10-02T02:02:34.364Z,23.10
2022-10-02T02:05:44.070Z,23.10
2022-10-02T02:08:30.936Z,23.10
2022-10-02T02:11:19.471Z,23.00
2022-10-02T02:14:16.678Z,23.10
2022-10-02T02:16:55.271Z,23.00
2022-10-02T02:20:02.277Z,23.00
2022-10-02T02:22:40.735Z,23.00
2022-10-02T02:25:18.943Z,23.00
2022-10-02T02:27:56.937Z,23.00
2022-10-02T02:30:31.959Z,23.00
2022-10-02T02:33:14.872Z,23.00
2022-10-02T02:35:52.449Z,23.00
2022-10-02T02:38:39.150Z,23.00
2022-10-02T02:41:17.002Z,22.90
2022-10-02T02:44:03.085Z,23.00
2022-10-02T02:47:04.008Z,23.00
2022-10-02T02:49:51.372Z,23.00
2022-10-02T02:52:58.963Z,23.00
2022-10-02T02:56:02.073Z,23.00
2022-10-02T02:58:49.093Z,23.00
2022-10-02T03:01:21.940Z,23.00
2022-10-02T03:03:54.401Z,23.00
2022-10-02T03:06:39.443Z,23.00
2022-10-02T03:09:18.270Z,22.90
2022-10-02T03:12:07.788Z,22.90
2022-10-02T03:14:58.850Z,22.90
2022-10-02T03:18:09.324Z,22.90
2022-10-02T03:20:58.263Z,22.90
2022-10-02T03:23:51.959Z,22.90
2022-10-02T03:26:47.690Z,22.80
2022-10-02T03:29:30.371Z,22.80
2022-10-02T03:32:05.401Z,22.80
2022-10-02T03:34:38.754Z,22.80
2022-10-02T03:37:11.727Z,22.70
2022-10-02T03:39:44.592Z,22.70
2022-10-02T03:42:20.707Z,22.70
2022-10-02T03:44:53.147Z,22.70
2022-10-02T03:47:25.671Z,22.60
2022-10-02T03:50:04.849Z,22.70
2022-10-02T03:52:42.693Z,22.60
2022-10-02T03:55:23.883Z,22.60
2022-10-02T03:58:19.856Z,22.60
2022-10-02T04:01:12.854Z,22.60
2022-10-02T04:04:19.921Z,22.60
2022-10-02T04:07:08.828Z,22.60
2022-10-02T04:09:55.540Z,22.60
2022-10-02T04:12:46.158Z,22.50
2022-10-02T04:15:35.875Z,22.50
2022-10-02T04:18:28.284Z,22.50
2022-10-02T04:21:26.956Z,22.50
2022-10-02T04:24:20.744Z,22.50
2022-10-02T04:27:23.423Z,22.50
2022-10-02T04:30:04.729Z,22.50
2022-10-02T04:32:38.041Z,22.40
2022-10-02T04:35:29.622Z,22.40
2022-10-02T04:38:04.761Z,22.40
2022-10-02T04:41:03.869Z,22.40
2022-10-02T04:43:55.238Z,22.40
2022-10-02T04:47:00.063Z,22.40
2022-10-02T04:49:53.393Z,22.40
2022-10-02T04:52:50.056Z,22.30
2022-10-02T04:55:51.973Z,22.30
2022-10-02T04:58:30.574Z,22.30
2022-10-02T05:01:21.198Z,22.30
2022-10-02T05:04:20.891Z,22.30
2022-10-02T05:07:11.960Z,22.30
2022-10-02T05:10:08.777Z,22.30
2022-10-02T05:13:29.293Z,22.30
2022-10-02T05:16:04.949Z,22.30
2022-10-02T05:18:58.447Z,22.30
2022-10-02T05:21:36.738Z,22.30
2022-10-02T05:24:35.897Z,22.30
2022-10-02T05:27:31.602Z,22.30
2022-10-02T05:30:19.103Z,22.30
2022-10-02T05:32:57.465Z,22.30
2022-10-02T05:36:00.887Z,22.40
2022-10-02T05:38:45.212Z,22.40
2022-10-02T05:41:45.464Z,22.40
2022-10-02T05:44:36.009Z,22.50
2022-10-02T05:47:29.078Z,22.50
2022-10-02T05:50:15.001Z,22.60
2022-10-02T05:52:58.997Z,22.80
2022-10-02T05:55:49.816Z,23.00
2022-10-02T05:58:32.855Z,23.20
2022-10-02T06:01:35.049Z,23.40
2022-10-02T06:04:13.670Z,23.60
2022-10-02T06:06:54.592Z,23.90
2022-10-02T06:09:36.948Z,24.10
2022-10-02T06:12:26.836Z,24.30
2022-10-02T06:15:18.020Z,24.50
2022-10-02T06:17:56.822Z,24.70
2022-10-02T06:20:45.404Z,24.90
2022-10-02T06:23:37.012Z,25.00
2022-10-02T06:26:37.663Z,25.20
2022-10-02T06:29:27.366Z,25.30
2022-10-02T06:32:11.583Z,25.40
2022-10-02T06:34:47.987Z,25.40
2022-10-02T06:37:49.366Z,25.50
2022-10-02T06:40:37.163Z,25.60
2022-10-02T06:43:47.036Z,25.70
2022-10-02T06:46:49.422Z,25.70
2022-10-02T06:49:41.818Z,25.70
2022-10-02T06:52:14.299Z,25.80
2022-10-02T06:55:18.196Z,25.80
2022-10-02T06:58:01.448Z,25.90
2022-10-02T07:00:46.066Z,26.00
2022-10-02T07:03:24.362Z,26.00
2022-10-02T07:06:12.411Z,26.00
2022-10-02T07:09:06.108Z,26.10
2022-10-02T07:12:15.124Z,26.10
2022-10-02T07:14:47.648Z,26.10
2022-10-02T07:17:57.618Z,26.10
2022-10-02T07:21:02.785Z,26.10
2022-10-02T07:24:04.216Z,26.00
2022-10-02T07:26:43.376Z,26.00
2022-10-02T07:29:58.957Z,26.00
2022-10-02T07:32:51.574Z,26.10
2022-10-02T07:35:39.129Z,26.00
2022-10-02T07:38:17.657Z,25.90
2022-10-02T07:41:17.736Z,25.90
2022-10-02T07:44:08.345Z,25.90
2022-10-02T07:46:54.888Z,25.90
2022-10-02T07:49:45.698Z,26.00
2022-10-02T07:53:06.809Z,26.00
2022-10-02T07:55:41.806Z,26.10
2022-10-02T07:58:57.587Z,26.10
2022-10-02T08:01:36.644Z,26.10
2022-10-02T08:04:19.071Z,26.20
2022-10-02T08:06:58.464Z,26.20
2022-10-02T08:09:59.620Z,26.20
2022-10-02T08:12:40.375Z,26.20
2022-10-02T08:15:16.725Z,26.30
2022-10-02T08:17:52.910Z,26.30
2022-10-02T08:20:42.051Z,26.30
2022-10-02T08:23:23.464Z,26.40
2022-10-02T08:26:33.056Z,26.40
2022-10-02T08:29:28.327Z,26.40
2022-10-02T08:32:01.264Z,26.50
2022-10-02T08:34:34.269Z,26.50
2022-10-02T08:37:14.619Z,26.60
2022-10-02T08:39:58.915Z,26.60
2022-10-02T08:42:51.591Z,26.70
2022-10-02T08:45:56.697Z,26.70
2022-10-02T08:48:55.530Z,26.70
2022-10-02T08:52:03.355Z,26.70
2022-10-02T08:54:49.789Z,26.80
2022-10-02T08:57:31.020Z,26.80
2022-10-02T09:00:23.393Z,26.80
2022-10-02T09:03:26.086Z,26.80
2022-10-02T09:06:07.712Z,26.80
2022-10-02T09:08:57.928Z,26.80
2022-10-02T09:11:52.171Z,26.80
2022-10-02T09:14:39.443Z,26.90
2022-10-02T09:17:24.856Z,26.90
2022-10-02T09:20:31.138Z,26.90
2022-10-02T09:23:37.291Z,26.90
2022-10-02T09:26:34.891Z,26.90
2022-10-02T09:29:10.381Z,27.00
2022-10-02T09:32:07.359Z,27.00
2022-10-02T09:34:58.678Z,27.00
2022-10-02T09:38:16.268Z,27.00
2022-10-02T09:41:24.670Z,27.10
2022-10-02T09:44:22.791Z,27.10
2022-10-02T09:47:19.369Z,27.10
2022-10-02T09:50:25.604Z,27.10
2022-10-02T09:53:06.879Z,27.10
2022-10-02T09:56:24.402Z,27.10
2022-10-02T09:59:11.572Z,27.10
2022-10-02T10:02:02.514Z,27.10
2022-10-02T10:05:06.449Z,27.10
2022-10-02T10:07:59.903Z,27.20
2022-10-02T10:10:51.477Z,27.20
2022-10-02T10:14:07.482Z,27.20
2022-10-02T10:17:19.578Z,27.10
2022-10-02T10:20:15.152Z,27.10
2022-10-02T10:23:21.621Z,27.10
2022-10-02T10:26:19.151Z,27.10
2022-10-02T10:29:21.547Z,27.10
2022-10-02T10:32:27.989Z,27.20
2022-10-02T10:35:25.146Z,27.20
2022-10-02T10:38:33.844Z,27.20
2022-10-02T10:41:27.319Z,27.20
2022-10-02T10:44:22.189Z,27.20
2022-10-02T10:46:59.734Z,27.20
2022-10-02T10:49:57.819Z,27.10
2022-10-02T10:53:07.470Z,27.10
2022-10-02T10:55:57.453Z,27.10
2022-10-02T10:58:56.589Z,27.10
2022-10-02T11:01:59.249Z,27.00
2022-10-02T11:04:46.833Z,26.90
2022-10-02T11:08:06.396Z,26.90
2022-10-02T11:11:21.994Z,26.80
2022-10-02T11:14:09.189Z,26.70
2022-10-02T11:16:59.733Z,26.60
2022-10-02T11:19:53.058Z,26.50
2022-10-02T11:22:44.277Z,26.50
2022-10-02T11:25:28.818Z,26.40
2022-10-02T11:28:36.957Z,26.40
2022-10-02T11:31:32.046Z,26.30
2022-10-02T11:34:25.613Z,26.20
2022-10-02T11:37:09.849Z,26.20
2022-10-02T11:39:45.357Z,26.10
2022-10-02T11:42:27.159Z,26.10
2022-10-02T11:45:24.252Z,26.00
2022-10-02T11:48:15.225Z,26.00
2022-10-02T11:51:10.662Z,25.90
2022-10-02T11:53:48.547Z,25.90
2022-10-02T11:56:22.482Z,25.90
2022-10-02T11:59:29.948Z,25.80
2022-10-02T12:02:16.789Z,25.80
2022-10-02T12:05:04.179Z,25.80
2022-10-02T12:08:04.588Z,25.70
2022-10-02T12:10:57.490Z,25.70
2022-10-02T12:13:32.965Z,25.70
2022-10-02T12:16:18.268Z,25.70
2022-10-02T12:19:17.977Z,25.60
2022-10-02T12:22:45.860Z,25.60
2022-10-02T12:25:56.307Z,25.60
2022-10-02T12:29:01.099Z,25.60
2022-10-02T12:31:51.499Z,25.60
2022-10-02T12:34:27.219Z,25.60
2022-10-02T12:37:14.592Z,25.60
2022-10-02T12:40:02.410Z,25.60
2022-10-02T12:42:43.980Z,25.60
2022-10-02T12:45:37.032Z,25.60
2022-10-02T12:48:31.479Z,25.60
2022-10-02T12:51:29.805Z,25.60
2022-10-02T12:54:33.564Z,25.60
2022-10-02T12:57:35.427Z,25.70
2022-10-02T13:00:17.218Z,25.70
2022-10-02T13:03:03.358Z,25.60
2022-10-02T13:06:12.854Z,25.60
2022-10-02T13:09:01.102Z,25.60
2022-10-02T13:11:36.729Z,25.60
2022-10-02T13:14:45.572Z,25.60
2022-10-02T13:17:36.421Z,25.60
2022-10-02T13:20:17.310Z,25.60
2022-10-02T13:23:24.476Z,25.60
2022-10-02T13:26:01.524Z,25.60
2022-10-02T13:29:06.410Z,25.50
2022-10-02T13:32:10.303Z,25.50
2022-10-02T13:34:49.080Z,25.50
2022-10-02T13:37:31.229Z,25.50
2022-10-02T13:40:13.009Z,25.50
2022-10-02T13:43:09.422Z,25.50
2022-10-02T13:45:51.333Z,25.50
2022-10-02T13:48:34.467Z,25.60
2022-10-02T13:51:09.295Z,25.60
2022-10-02T13:53:47.847Z,25.60
2022-10-02T13:56:32.726Z,25.60
2022-10-02T13:59:33.824Z,25.60
2022-10-02T14:02:18.234Z,25.60
2022-10-02T14:05:03.512Z,25.50
2022-10-02T14:07:51.842Z,25.60
2022-10-02T14:10:37.198Z,25.50
2022-10-02T14:13:28.063Z,25.50
2022-10-02T14:16:09.373Z,25.50
2022-10-02T14:18:57.270Z,25.50
2022-10-02T14:21:38.993Z,25.50
2022-10-02T14:24:46.846Z,25.50
2022-10-02T14:27:58.620Z,25.50
2022-10-02T14:30:58.079Z,25.60
2022-10-02T14:33:56.200Z,25.60
2022-10-02T14:36:50.571Z,25.50
2022-10-02T14:39:38.705Z,25.50
2022-10-02T14:42:56.587Z,25.50
2022-10-02T14:46:04.008Z,25.50
2022-10-02T14:48:39.500Z,25.50
2022-10-02T14:51:40.286Z,25.60
2022-10-02T14:54:29.681Z,25.60
2022-10-02T14:57:18.539Z,25.60
2022-10-02T15:00:09.338Z,25.60
2022-10-02T15:03:24.824Z,25.60
2022-10-02T15:06:32.543Z,25.60
2022-10-02T15:09:47.303Z,25.60
2022-10-02T15:12:24.586Z,25.60
2022-10-02T15:15:17.939Z,25.60
2022-10-02T15:18:13.176Z,25.60
2022-10-02T15:21:00.871Z,25.60
2022-10-02T15:23:33.395Z,25.60
2022-10-02T15:26:33.120Z,25.50
2022-10-02T15:29:21.935Z,25.60
2022-10-02T15:32:09.190Z,25.60
2022-10-02T15:34:54.489Z,25.50
2022-10-02T15:37:56.072Z,25.50
2022-10-02T15:40:55.376Z,25.50
2022-10-02T15:43:44.695Z,25.40
2022-10-02T15:46:42.833Z,25.40
2022-10-02T15:49:41.227Z,25.40
2022-10-02T15:52:24.040Z,25.30
2022-10-02T15:55:38.941Z,25.30
2022-10-02T15:58:34.335Z,25.30
2022-10-02T16:01:43.767Z,25.30
2022-10-02T16:04:33.924Z,25.20
2022-10-02T16:07:36.752Z,25.20
2022-10-02T16:10:32.579Z,25.20
2022-10-02T16:13:24.944Z,25.20
2022-10-02T16:16:40.658Z,25.20
2022-10-02T16:19:50.842Z,25.20
2022-10-02T16:22:38.177Z,25.20
2022-10-02T16:25:31.738Z,25.20
2022-10-02T16:28:31.648Z,25.20
2022-10-02T16:31:38.231Z,25.10
2022-10-02T16:34:28.777Z,25.10
2022-10-02T16:37:31.347Z,25.10
2022-10-02T16:40:18.151Z,25.10
2022-10-02T16:42:53.389Z,25.10
2022-10-02T16:45:59.951Z,25.10
2022-10-02T16:48:40.073Z,25.10
2022-10-02T16:51:32.860Z,25.10
2022-10-02T16:54:20.930Z,25.10
2022-10-02T16:57:01.300Z,25.10
2022-10-02T16:59:47.824Z,25.10
2022-10-02T17:02:34.592Z,25.10
2022-10-02T17:05:28.390Z,25.10
2022-10-02T17:08:22.966Z,25.00
2022-10-02T17:11:13.829Z,25.10
2022-10-02T17:14:18.490Z,25.00
2022-10-02T17:17:14.683Z,25.00
2022-10-02T17:20:25.227Z,25.10
2022-10-02T17:23:34.839Z,25.00
2022-10-02T17:26:55.419Z,25.10
2022-10-02T17:29:46.168Z,25.00
2022-10-02T17:32:37.206Z,25.00
2022-10-02T17:35:45.106Z,25.00
2022-10-02T17:39:04.449Z,25.00
2022-10-02T17:41:49.534Z,25.00
2022-10-02T17:44:35.418Z,25.00
2022-10-02T17:47:42.702Z,24.90
2022-10-02T17:51:03.454Z,25.00
2022-10-02T17:54:24.058Z,25.00
2022-10-02T17:57:19.845Z,25.00
2022-10-02T18:00:02.872Z,24.90
2022-10-02T18:02:54.141Z,25.00
2022-10-02T18:05:32.505Z,24.90
2022-10-02T18:08:20.014Z,24.90
2022-10-02T18:11:18.522Z,24.90
2022-10-02T18:14:12.789Z,24.90
2022-10-02T18:17:15.565Z,24.90
2022-10-02T18:19:59.901Z,24.90
2022-10-02T18:22:48.299Z,24.90
2022-10-02T18:25:27.718Z,24.90
2022-10-02T18:28:18.274Z,24.80
2022-10-02T18:31:06.452Z,24.90
2022-10-02T18:34:17.264Z,24.90
2022-10-02T18:37:03.125Z,24.80
2022-10-02T18:39:59.993Z,24.80
2022-10-02T18:42:44.231Z,24.80
2022-10-02T18:45:36.860Z,24.80
2022-10-02T18:48:47.851Z,24.80
2022-10-02T18:52:00.121Z,24.70
2022-10-02T18:54:54.770Z,24.80
2022-10-02T18:57:42.271Z,24.70
2022-10-02T19:00:21.743Z,24.70
2022-10-02T19:03:35.762Z,24.70
2022-10-02T19:06:32.328Z,24.70
2022-10-02T19:09:07.663Z,24.70
2022-10-02T19:11:58.031Z,24.60
2022-10-02T19:14:42.557Z,24.70
2022-10-02T19:17:26.547Z,24.60
2022-10-02T19:19:59.004Z,24.60
2022-10-02T19:22:38.636Z,24.60
2022-10-02T19:25:17.072Z,24.60
2022-10-02T19:27:54.895Z,24.60
2022-10-02T19:30:31.090Z,24.60
2022-10-02T19:33:11.174Z,24.60
2022-10-02T19:35:44.807Z,24.60
2022-10-02T19:38:34.932Z,24.60
2022-10-02T19:41:14.060Z,24.60
2022-10-02T19:43:56.889Z,24.60
2022-10-02T19:46:53.068Z,24.60
2022-10-02T19:49:30.385Z,24.50
2022-10-02T19:52:02.895Z,24.60
2022-10-02T19:54:41.069Z,24.50
2022-10-02T19:57:18.557Z,24.60
2022-10-02T19:59:54.862Z,24.50
2022-10-02T20:02:41.143Z,24.50
2022-10-02T20:05:29.485Z,24.50
2022-10-02T20:08:08.535Z,24.50
2022-10-02T20:10:48.420Z,24.40
2022-10-02T20:13:44.830Z,24.40
2022-10-02T20:16:46.087Z,24.40
2022-10-02T20:19:28.630Z,24.40
2022-10-02T20:22:13.520Z,24.40
2022-10-02T20:24:53.295Z,24.40
2022-10-02T20:27:37.460Z,24.40
2022-10-02T20:30:17.380Z,24.30
2022-10-02T20:33:35.567Z,24.40
2022-10-02T20:36:26.830Z,24.30
2022-10-02T20:39:14.338Z,24.30
2022-10-02T20:42:06.355Z,24.30
2022-10-02T20:44:39.419Z,24.30
2022-10-02T20:47:31.193Z,24.30
2022-10-02T20:50:25.233Z,24.20
2022-10-02T20:53:29.509Z,24.20
2022-10-02T20:56:32.749Z,24.20
2022-10-02T20:59:29.256Z,24.20
2022-10-02T21:02:10.502Z,24.20
2022-10-02T21:05:39.190Z,24.20
2022-10-02T21:08:47.341Z,24.20
2022-10-02T21:11:35.938Z,24.10
2022-10-02T21:14:44.925Z,24.10
2022-10-02T21:17:38.908Z,24.10
2022-10-02T21:20:52.079Z,24.10
2022-10-02T21:23:46.446Z,24.10
2022-10-02T21:26:48.573Z,24.10
2022-10-02T21:29:54.824Z,24.00
2022-10-02T21:32:34.209Z,24.00
2022-10-02T21:35:27.202Z,24.00
2022-10-02T21:38:20.102Z,24.00
2022-10-02T21:41:29.681Z,24.00
2022-10-02T21:44:29.725Z,24.00
2022-10-02T21:47:26.354Z,24.00
2022-10-02T21:50:36.399Z,23.90
2022-10-02T21:53:46.330Z,23.90
2022-10-02T21:56:37.583Z,24.00
2022-10-02T21:59:21.798Z,23.90
2022-10-02T22:02:28.105Z,23.90
2022-10-02T22:05:09.713Z,23.90
2022-10-02T22:08:03.556Z,23.90
2022-10-02T22:11:11.487Z,23.90
2022-10-02T22:13:45.110Z,23.80
2022-10-02T22:16:45.977Z,23.80
2022-10-02T22:19:21.288Z,23.80
2022-10-02T22:22:31.310Z,23.80
2022-10-02T22:25:34.356Z,23.80
2022-10-02T22:28:21.660Z,23.80
2022-10-02T22:30:57.259Z,23.80
2022-10-02T22:33:54.397Z,23.80
2022-10-02T22:36:49.800Z,23.80
2022-10-02T22:39:25.061Z,23.70
2022-10-02T22:42:12.037Z,23.70
2022-10-02T22:45:42.687Z,23.70
2022-10-02T22:48:43.706Z,23.60
2022-10-02T22:51:22.173Z,23.60
2022-10-02T22:54:05.952Z,23.60
2022-10-02T22:56:51.489Z,23.60
2022-10-02T22:59:31.951Z,23.60
2022-10-02T23:02:32.689Z,23.60
2022-10-02T23:05:10.993Z,23.60
2022-10-02T23:08:02.517Z,23.50
2022-10-02T23:10:54.457Z,23.50
2022-10-02T23:13:47.959Z,23.50
2022-10-02T23:16:26.877Z,23.50
2022-10-02T23:19:32.093Z,23.50
2022-10-02T23:22:25.044Z,23.50
2022-10-02T23:25:19.608Z,23.50
2022-10-02T23:27:57.085Z,23.40
2022-10-02T23:30:34.775Z,23.40
2022-10-02T23:33:22.578Z,23.40
2022-10-02T23:36:22.484Z,23.40
2022-10-02T23:39:20.335Z,23.40
2022-10-02T23:41:58.674Z,23.30
2022-10-02T23:44:41.841Z,23.30
2022-10-02T23:47:27.711Z,23.30
2022-10-02T23:50:01.424Z,23.30
2022-10-02T23:52:43.040Z,23.20
2022-10-02T23:55:34.581Z,23.20
2022-10-02T23:58:26.395Z,23.20
